createdAt,value
2019-04-21T00:00:37.508Z,25.03
2019-04-21T00:03:19.326Z,21.90
2019-04-21T00:06:03.243Z,23.20
2019-04-21T00:08:37.974Z,22.13
2019-04-21T00:13:39.411Z,26.50
2019-04-21T00:16:03.163Z,22.40
2019-04-21T00:18:50.611Z,25.10
2019-04-21T00:21:26.641Z,25.53
2019-04-21T00:24:23.995Z,20.03
2019-04-21T00:27:05.217Z,23.73
2019-04-21T00:29:52.057Z,27.73
2019-04-21T00:32:11.452Z,24.07
2019-04-21T00:34:28.453Z,22.97
2019-04-21T00:37:12.082Z,24.87
2019-04-21T00:40:01.928Z,23.33
2019-04-21T00:42:29.261Z,19.87
2019-04-21T00:44:58.592Z,24.00
2019-04-21T00:47:34.462Z,22.77
2019-04-21T00:50:18.069Z,19.50
2019-04-21T00:52:56.246Z,21.00
2019-04-21T00:58:06.876Z,23.27
2019-04-21T01:00:32.483Z,20.73
2019-04-21T01:03:10.968Z,23.87
2019-04-21T01:05:49.755Z,21.90
2019-04-21T01:08:17.646Z,20.27
2019-04-21T01:10:43.578Z,24.90
2019-04-21T01:13:27.966Z,26.10
2019-04-21T01:16:00.803Z,21.17
2019-04-21T01:18:32.660Z,22.47
2019-04-21T01:20:46.425Z,22.00
2019-04-21T01:23:19.228Z,23.10
2019-04-21T01:26:10.151Z,22.27
2019-04-21T01:28:39.844Z,23.53
2019-04-21T01:31:18.101Z,22.90
2019-04-21T01:33:56.215Z,26.17
2019-04-21T01:36:26.024Z,22.47
2019-04-21T01:39:07.356Z,22.70
2019-04-21T01:41:38.947Z,24.87
2019-04-21T01:44:07.974Z,22.67
2019-04-21T01:46:40.876Z,28.17
2019-04-21T01:49:09.185Z,21.90
2019-04-21T01:52:05.626Z,23.63
2019-04-21T01:54:48.267Z,24.43
2019-04-21T01:57:17.371Z,27.73
2019-04-21T01:59:50.258Z,23.90
2019-04-21T02:02:32.181Z,25.00
2019-04-21T02:05:13.373Z,27.67
2019-04-21T02:07:40.711Z,24.03
2019-04-21T02:10:22.663Z,26.77
2019-04-21T02:12:50.945Z,23.43
2019-04-21T02:15:26.839Z,22.87
2019-04-21T02:17:54.137Z,27.10
2019-04-21T02:20:22.998Z,21.83
2019-04-21T02:23:26.405Z,24.80
2019-04-21T02:25:38.614Z,21.73
2019-04-21T02:28:18.054Z,20.73
2019-04-21T02:36:26.545Z,25.43
2019-04-21T02:41:34.651Z,25.30
2019-04-21T02:44:08.268Z,24.00
2019-04-21T02:46:40.006Z,27.57
2019-04-21T02:49:13.394Z,28.67
2019-04-21T02:51:50.182Z,24.60
2019-04-21T02:54:40.980Z,25.43
2019-04-21T02:57:01.283Z,23.27
2019-04-21T02:59:39.192Z,25.70
2019-04-21T03:02:17.137Z,23.37
2019-04-21T03:04:53.267Z,25.60
2019-04-21T03:07:31.917Z,25.50
2019-04-21T03:09:49.473Z,24.20
2019-04-21T03:15:15.957Z,25.13
2019-04-21T03:17:43.230Z,24.10
2019-04-21T03:31:01.862Z,23.80
2019-04-21T03:38:24.648Z,25.27
2019-04-21T03:40:44.355Z,25.17
2019-04-21T03:43:22.661Z,25.97
2019-04-21T03:45:49.139Z,23.83
2019-04-21T03:48:44.288Z,30.60
2019-04-21T03:51:04.839Z,27.87
2019-04-21T03:56:14.560Z,24.60
2019-04-21T04:01:16.531Z,28.53
2019-04-21T04:06:49.276Z,27.03
2019-04-21T04:09:19.556Z,24.90
2019-04-21T04:14:23.411Z,27.97
2019-04-21T04:17:10.665Z,27.17
2019-04-21T04:19:33.099Z,29.40
2019-04-21T04:22:20.959Z,28.37
2019-04-21T04:24:44.769Z,25.93
2019-04-21T04:27:14.617Z,26.40
2019-04-21T04:29:39.753Z,26.83
2019-04-21T04:32:25.270Z,26.60
2019-04-21T04:34:57.234Z,25.33
2019-04-21T04:37:32.887Z,22.03
2019-04-21T04:45:26.535Z,26.60
2019-04-21T04:50:19.735Z,21.50
2019-04-21T04:52:56.072Z,19.13
2019-04-21T04:58:07.601Z,18.03
2019-04-21T05:03:15.971Z,21.00
2019-04-21T05:09:10.963Z,24.47
2019-04-21T05:14:07.598Z,18.47
2019-04-21T05:16:48.399Z,22.33
2019-04-21T05:19:14.831Z,17.90
2019-04-21T05:21:46.645Z,19.20
2019-04-21T05:24:12.405Z,16.57
2019-04-21T05:26:43.424Z,19.40
2019-04-21T05:29:13.699Z,17.97
2019-04-21T05:32:14.838Z,14.80
2019-04-21T05:34:52.821Z,15.50
2019-04-21T05:37:14.369Z,17.00
2019-04-21T05:39:48.979Z,20.93
2019-04-21T05:42:23.230Z,17.33
2019-04-21T05:45:17.423Z,22.00
2019-04-21T05:47:39.850Z,18.03
2019-04-21T05:50:13.360Z,16.63
2019-04-21T05:52:51.959Z,19.13
2019-04-21T05:55:40.447Z,18.30
2019-04-21T05:58:03.913Z,17.37
2019-04-21T06:00:59.162Z,20.43
2019-04-21T06:03:16.512Z,17.73
2019-04-21T06:08:29.733Z,16.27
2019-04-21T06:13:35.146Z,16.67
2019-04-21T06:16:23.162Z,15.37
2019-04-21T06:21:09.825Z,12.93
2019-04-21T06:23:45.044Z,14.07
2019-04-21T06:28:50.436Z,14.20
2019-04-21T06:31:57.823Z,13.57
2019-04-21T06:34:08.177Z,10.73
2019-04-21T06:36:42.706Z,11.87
2019-04-21T06:41:39.905Z,14.23
2019-04-21T06:44:16.863Z,13.03
2019-04-21T06:46:48.884Z,13.70
2019-04-21T06:49:27.519Z,13.90
2019-04-21T06:52:07.560Z,14.40
2019-04-21T06:54:36.258Z,13.97
2019-04-21T06:57:15.164Z,10.73
2019-04-21T06:59:38.405Z,17.47
2019-04-21T07:02:33.349Z,11.70
2019-04-21T07:04:51.809Z,9.67
2019-04-21T07:07:26.166Z,12.93
2019-04-21T07:09:55.061Z,12.00
2019-04-21T07:12:27.551Z,12.30
2019-04-21T07:15:06.606Z,9.90
2019-04-21T07:17:35.729Z,16.40
2019-04-21T07:20:15.840Z,10.10
2019-04-21T07:22:50.813Z,10.83
2019-04-21T07:25:32.766Z,8.00
2019-04-21T07:27:52.426Z,11.53
2019-04-21T07:30:31.682Z,8.53
2019-04-21T07:33:07.769Z,12.20
2019-04-21T07:35:31.679Z,9.97
2019-04-21T07:38:04.351Z,9.80
2019-04-21T07:40:36.392Z,10.37
2019-04-21T07:43:09.324Z,7.67
2019-04-21T07:45:40.125Z,10.60
2019-04-21T07:48:19.260Z,5.97
2019-04-21T07:51:12.068Z,8.57
2019-04-21T07:53:51.035Z,4.13
2019-04-21T07:56:06.499Z,4.90
2019-04-21T07:58:58.219Z,5.07
2019-04-21T08:04:03.936Z,4.33
2019-04-21T08:06:33.915Z,6.03
2019-04-21T08:09:07.147Z,3.57
2019-04-21T08:11:36.782Z,4.80
2019-04-21T08:14:19.498Z,5.40
2019-04-21T08:16:54.010Z,4.40
2019-04-21T08:19:25.255Z,6.67
2019-04-21T08:22:03.838Z,7.50
2019-04-21T08:24:30.599Z,6.20
2019-04-21T08:27:05.049Z,7.67
2019-04-21T08:29:42.981Z,5.50
2019-04-21T08:34:55.165Z,6.77
2019-04-21T08:37:21.568Z,9.07
2019-04-21T08:40:09.855Z,6.60
2019-04-21T08:42:26.688Z,7.83
2019-04-21T08:45:00.222Z,10.00
2019-04-21T08:47:33.308Z,7.73
2019-04-21T08:50:11.761Z,6.93
2019-04-21T08:55:30.611Z,7.93
2019-04-21T08:58:10.988Z,5.20
2019-04-21T09:00:38.448Z,6.63
2019-04-21T09:03:16.225Z,4.60
2019-04-21T09:05:52.538Z,7.07
2019-04-21T09:08:24.840Z,5.53
2019-04-21T09:10:52.883Z,4.60
2019-04-21T09:13:32.736Z,7.93
2019-04-21T09:15:59.560Z,6.10
2019-04-21T09:18:39.531Z,6.73
2019-04-21T09:21:23.149Z,6.20
2019-04-21T09:23:54.295Z,5.53
2019-04-21T09:26:25.228Z,5.00
2019-04-21T09:28:48.058Z,6.67
2019-04-21T09:31:12.208Z,5.50
2019-04-21T09:33:48.791Z,4.23
2019-04-21T09:36:21.281Z,6.87
2019-04-21T09:39:00.057Z,6.50
2019-04-21T09:41:27.412Z,5.33
2019-04-21T09:43:59.734Z,5.20
2019-04-21T09:46:35.491Z,6.17
2019-04-21T09:49:12.066Z,6.47
2019-04-21T09:51:40.053Z,7.70
2019-04-21T09:54:18.979Z,7.23
2019-04-21T09:56:53.874Z,9.80
2019-04-21T09:59:26.182Z,10.07
2019-04-21T10:02:05.171Z,6.97
2019-04-21T10:04:27.064Z,7.03
2019-04-21T10:06:59.081Z,9.13
2019-04-21T10:09:31.109Z,6.67
2019-04-21T10:12:03.459Z,6.27
2019-04-21T10:14:36.510Z,8.63
2019-04-21T10:17:22.365Z,9.23
2019-04-21T10:19:55.112Z,6.53
2019-04-21T10:22:28.744Z,6.07
2019-04-21T10:25:00.907Z,10.53
2019-04-21T10:27:32.840Z,7.90
2019-04-21T10:30:11.971Z,9.63
2019-04-21T10:32:45.961Z,7.03
2019-04-21T10:35:21.169Z,9.03
2019-04-21T10:38:03.348Z,6.70
2019-04-21T10:40:25.988Z,7.83
2019-04-21T10:42:58.367Z,10.80
2019-04-21T10:45:30.836Z,7.67
2019-04-21T10:48:03.163Z,7.60
2019-04-21T10:50:36.946Z,9.63
2019-04-21T10:53:14.293Z,5.17
2019-04-21T10:56:00.449Z,8.13
2019-04-21T10:58:22.544Z,8.77
2019-04-21T11:01:13.849Z,8.90
2019-04-21T11:03:55.635Z,8.40
2019-04-21T11:06:28.806Z,7.87
2019-04-21T11:09:01.964Z,9.67
2019-04-21T11:11:34.784Z,7.53
2019-04-21T11:14:06.958Z,6.60
2019-04-21T11:16:39.235Z,6.20
2019-04-21T11:19:11.745Z,6.90
2019-04-21T11:21:44.917Z,7.70
2019-04-21T11:24:18.099Z,7.60
2019-04-21T11:26:51.879Z,5.90
2019-04-21T11:29:26.148Z,8.57
2019-04-21T11:31:58.804Z,7.43
2019-04-21T11:34:31.530Z,7.90
2019-04-21T11:37:05.968Z,10.77
2019-04-21T11:39:48.779Z,6.97
2019-04-21T11:42:13.678Z,6.67
2019-04-21T11:44:47.096Z,5.57
2019-04-21T11:47:24.637Z,6.60
2019-04-21T11:49:57.087Z,7.17
2019-04-21T11:52:29.460Z,10.43
2019-04-21T11:55:02.679Z,7.03
2019-04-21T11:57:39.648Z,8.13
2019-04-21T12:00:09.365Z,7.23
2019-04-21T12:02:41.613Z,10.53
2019-04-21T12:05:15.040Z,10.47
2019-04-21T12:07:47.239Z,8.90
2019-04-21T12:10:19.607Z,9.27
2019-04-21T12:12:52.984Z,8.13
2019-04-21T12:15:27.101Z,4.80
2019-04-21T12:17:59.631Z,5.43
2019-04-21T12:20:31.837Z,5.87
2019-04-21T12:23:04.659Z,5.60
2019-04-21T12:25:38.997Z,4.17
2019-04-21T12:28:12.220Z,6.00
2019-04-21T12:30:45.879Z,3.83
2019-04-21T12:33:20.225Z,2.83
2019-04-21T12:35:53.572Z,3.10
2019-04-21T12:38:36.477Z,4.00
2019-04-21T12:41:00.391Z,2.77
2019-04-21T12:43:32.828Z,4.17
2019-04-21T12:46:05.333Z,5.00
2019-04-21T12:48:38.031Z,7.33
2019-04-21T12:51:12.182Z,5.43
2019-04-21T12:53:45.583Z,3.10
2019-04-21T12:56:17.772Z,3.73
2019-04-21T12:58:51.313Z,3.00
2019-04-21T13:01:23.464Z,3.40
2019-04-21T13:03:55.735Z,6.30
2019-04-21T13:06:27.888Z,5.17
2019-04-21T13:09:05.268Z,6.50
2019-04-21T13:11:33.480Z,3.93
2019-04-21T13:14:06.109Z,5.27
2019-04-21T13:16:39.241Z,5.23
2019-04-21T13:19:11.593Z,4.30
2019-04-21T13:21:45.753Z,5.77
2019-04-21T13:24:18.033Z,4.87
2019-04-21T13:26:55.919Z,4.73
2019-04-21T13:29:24.522Z,4.53
2019-04-21T13:31:56.735Z,5.07
2019-04-21T13:34:28.672Z,7.00
2019-04-21T13:37:01.567Z,4.77
2019-04-21T13:40:03.406Z,4.97
2019-04-21T13:42:21.396Z,5.77
2019-04-21T13:44:44.629Z,4.43
2019-04-21T13:47:16.848Z,5.13
2019-04-21T13:49:49.537Z,5.13
2019-04-21T13:52:22.795Z,3.50
2019-04-21T13:54:55.906Z,3.53
2019-04-21T13:57:28.478Z,5.60
2019-04-21T14:00:01.370Z,5.27
2019-04-21T14:02:34.495Z,4.80
2019-04-21T14:05:11.800Z,5.43
2019-04-21T14:07:43.991Z,7.07
2019-04-21T14:10:17.893Z,6.57
2019-04-21T14:12:50.660Z,5.33
2019-04-21T14:15:24.178Z,5.80
2019-04-21T14:17:58.329Z,5.20
2019-04-21T14:20:31.317Z,5.17
2019-04-21T14:23:15.640Z,4.00
2019-04-21T14:25:37.620Z,6.07
2019-04-21T14:28:10.262Z,6.23
2019-04-21T14:30:42.365Z,3.30
2019-04-21T14:33:14.307Z,7.03
2019-04-21T14:35:47.114Z,5.17
2019-04-21T14:38:20.619Z,5.93
2019-04-21T14:40:52.631Z,3.60
2019-04-21T14:43:25.861Z,3.13
2019-04-21T14:46:15.219Z,5.40
2019-04-21T14:49:01.273Z,5.37
2019-04-21T14:51:41.129Z,6.37
2019-04-21T14:54:26.876Z,5.23
2019-04-21T14:56:59.266Z,4.23
2019-04-21T14:59:35.201Z,4.43
2019-04-21T15:02:07.768Z,4.40
2019-04-21T15:04:39.859Z,4.10
2019-04-21T15:07:12.955Z,10.23
2019-04-21T15:09:46.363Z,4.97
2019-04-21T15:12:20.070Z,5.70
2019-04-21T15:14:53.694Z,3.10
2019-04-21T15:17:27.470Z,7.77
2019-04-21T15:20:04.791Z,5.03
2019-04-21T15:22:34.482Z,9.20
2019-04-21T15:25:08.059Z,7.80
2019-04-21T15:27:41.159Z,4.50
2019-04-21T15:30:14.412Z,4.47
2019-04-21T15:32:46.575Z,3.83
2019-04-21T15:35:19.547Z,4.83
2019-04-21T15:37:51.851Z,4.97
2019-04-21T15:40:36.597Z,4.63
2019-04-21T15:42:57.506Z,3.87
2019-04-21T15:45:30.579Z,3.20
2019-04-21T15:48:02.669Z,4.67
2019-04-21T15:50:35.669Z,4.23
2019-04-21T15:53:11.966Z,4.57
2019-04-21T15:56:02.572Z,5.03
2019-04-21T15:58:46.431Z,6.53
2019-04-21T16:01:30.375Z,7.77
2019-04-21T16:04:04.304Z,7.07
2019-04-21T16:06:37.360Z,7.17
2019-04-21T16:09:14.959Z,9.93
2019-04-21T16:11:46.020Z,4.87
2019-04-21T16:14:18.662Z,5.57
2019-04-21T16:16:51.764Z,7.17
2019-04-21T16:19:24.967Z,5.40
2019-04-21T16:21:57.006Z,6.97
2019-04-21T16:24:30.774Z,7.97
2019-04-21T16:27:06.590Z,7.33
2019-04-21T16:29:37.370Z,10.87
2019-04-21T16:32:09.434Z,7.37
2019-04-21T16:34:49.184Z,9.83
2019-04-21T16:37:15.332Z,9.97
2019-04-21T16:39:47.474Z,6.00
2019-04-21T16:42:20.471Z,7.47
2019-04-21T16:44:52.798Z,6.13
2019-04-21T16:47:26.110Z,6.50
2019-04-21T16:49:58.242Z,7.00
2019-04-21T16:52:38.411Z,9.70
2019-04-21T16:55:14.774Z,8.27
2019-04-21T16:58:03.245Z,12.57
2019-04-21T17:00:36.457Z,7.83
2019-04-21T17:03:01.445Z,7.60
2019-04-21T17:05:34.268Z,4.67
2019-04-21T17:08:06.417Z,11.60
2019-04-21T17:10:38.385Z,7.27
2019-04-21T17:13:11.376Z,8.90
2019-04-21T17:16:01.364Z,11.10
2019-04-21T17:18:31.710Z,8.27
2019-04-21T17:20:56.178Z,7.30
2019-04-21T17:23:25.294Z,8.60
2019-04-21T17:25:59.217Z,6.50
2019-04-21T17:28:31.265Z,9.70
2019-04-21T17:31:04.682Z,5.73
2019-04-21T17:33:37.099Z,8.37
2019-04-21T17:36:09.248Z,7.53
2019-04-21T17:38:41.841Z,9.00
2019-04-21T17:41:25.940Z,11.60
2019-04-21T17:43:47.944Z,12.50
2019-04-21T17:46:30.292Z,6.67
2019-04-21T17:48:55.184Z,9.20
2019-04-21T17:51:49.386Z,6.60
2019-04-21T17:54:27.627Z,10.60
2019-04-21T17:57:19.981Z,7.53
2019-04-21T17:59:57.673Z,8.77
2019-04-21T18:02:26.359Z,15.07
2019-04-21T18:04:57.866Z,7.93
2019-04-21T18:07:32.990Z,7.17
2019-04-21T18:10:04.379Z,6.93
2019-04-21T18:12:33.613Z,7.07
2019-04-21T18:15:16.188Z,6.00
2019-04-21T18:17:26.786Z,8.57
2019-04-21T18:19:59.687Z,7.00
2019-04-21T18:22:41.737Z,6.47
2019-04-21T18:25:28.052Z,5.57
2019-04-21T18:27:50.597Z,8.10
2019-04-21T18:30:36.033Z,7.33
2019-04-21T18:33:14.169Z,5.97
2019-04-21T18:36:00.660Z,8.03
2019-04-21T18:39:16.404Z,4.80
2019-04-21T18:41:36.447Z,9.00
2019-04-21T18:44:53.760Z,11.90
2019-04-21T18:47:23.623Z,11.17
2019-04-21T18:49:48.144Z,6.23
2019-04-21T18:52:32.607Z,7.63
2019-04-21T18:55:09.584Z,7.37
2019-04-21T18:57:39.283Z,7.17
2019-04-21T19:00:15.277Z,7.27
2019-04-21T19:02:47.701Z,7.95
2019-04-21T19:05:17.629Z,9.27
2019-04-21T19:08:13.353Z,10.63
2019-04-21T19:10:39.658Z,9.37
2019-04-21T19:16:08.306Z,7.57
2019-04-21T19:20:58.010Z,8.30
2019-04-21T19:23:39.148Z,9.77
2019-04-21T19:26:15.074Z,8.33
2019-04-21T19:28:47.594Z,13.10
2019-04-21T19:31:17.105Z,11.80
2019-04-21T19:33:41.125Z,8.90
2019-04-21T19:36:05.459Z,9.87
2019-04-21T19:38:48.908Z,7.77
2019-04-21T19:41:28.135Z,11.73
2019-04-21T19:44:03.030Z,7.50
2019-04-21T19:46:34.309Z,10.67
2019-04-21T19:49:16.893Z,9.83
2019-04-21T19:51:43.257Z,11.10
2019-04-21T19:54:09.956Z,12.47
2019-04-21T19:56:38.415Z,8.43
2019-04-21T19:59:12.859Z,8.93
2019-04-21T20:01:45.131Z,11.87
2019-04-21T20:04:16.809Z,12.60
2019-04-21T20:07:01.856Z,8.13
2019-04-21T20:09:40.637Z,12.77
2019-04-21T20:12:13.155Z,10.37
2019-04-21T20:14:56.035Z,10.50
2019-04-21T20:17:16.535Z,9.57
2019-04-21T20:19:38.621Z,13.43
2019-04-21T20:22:11.381Z,11.47
2019-04-21T20:24:50.007Z,16.07
2019-04-21T20:27:29.597Z,9.40
2019-04-21T20:30:07.150Z,13.93
2019-04-21T20:32:46.388Z,13.10
2019-04-21T20:35:25.117Z,11.20
2019-04-21T20:37:47.868Z,10.80
2019-04-21T20:40:21.938Z,11.60
2019-04-21T20:43:07.172Z,17.27
2019-04-21T20:45:40.216Z,13.77
2019-04-21T20:47:54.661Z,15.23
2019-04-21T20:50:40.292Z,13.33
2019-04-21T20:53:14.953Z,13.47
2019-04-21T20:55:48.398Z,14.77
2019-04-21T20:58:26.442Z,18.03
2019-04-21T21:03:35.309Z,12.60
2019-04-21T21:06:01.067Z,14.70
2019-04-21T21:08:40.307Z,11.27
2019-04-21T21:11:08.302Z,11.63
2019-04-21T21:13:49.209Z,11.60
2019-04-21T21:16:41.218Z,15.63
2019-04-21T21:19:13.032Z,11.80
2019-04-21T21:21:24.302Z,14.83
2019-04-21T21:24:03.531Z,21.30
2019-04-21T21:26:38.152Z,11.67
2019-04-21T21:29:03.271Z,11.43
2019-04-21T21:31:41.730Z,12.80
2019-04-21T21:34:20.859Z,15.43
2019-04-21T21:36:55.616Z,13.60
2019-04-21T21:39:24.613Z,15.10
2019-04-21T21:41:48.532Z,13.07
2019-04-21T21:44:21.114Z,18.03
2019-04-21T21:47:04.261Z,12.33
2019-04-21T21:49:36.994Z,15.43
2019-04-21T21:52:07.002Z,20.37
2019-04-21T21:54:31.864Z,14.17
2019-04-21T21:57:04.840Z,14.40
2019-04-21T21:59:38.643Z,12.57
2019-04-21T22:02:17.129Z,14.80
2019-04-21T22:04:54.634Z,18.70
2019-04-21T22:07:22.550Z,15.97
2019-04-21T22:09:52.404Z,15.70
2019-04-21T22:12:25.800Z,13.00
2019-04-21T22:15:02.453Z,12.33
2019-04-21T22:17:52.795Z,15.57
2019-04-21T22:20:30.123Z,14.53
2019-04-21T22:22:51.727Z,16.87
2019-04-21T22:25:22.885Z,11.50
2019-04-21T22:27:48.882Z,20.47
2019-04-21T22:30:28.986Z,15.10
2019-04-21T22:33:00.732Z,12.70
2019-04-21T22:35:37.876Z,17.93
2019-04-21T22:38:20.760Z,23.27
2019-04-21T22:40:50.875Z,24.83
2019-04-21T22:43:19.713Z,23.53
2019-04-21T22:45:43.488Z,14.13
2019-04-21T22:48:18.203Z,18.53
2019-04-21T22:50:49.097Z,26.30
2019-04-21T22:53:21.726Z,17.67
2019-04-21T22:56:02.957Z,16.73
2019-04-21T22:58:35.684Z,13.77
2019-04-21T23:01:06.127Z,17.30
2019-04-21T23:03:40.070Z,18.87
2019-04-21T23:06:19.587Z,15.27
2019-04-21T23:08:46.147Z,16.23
2019-04-21T23:11:19.814Z,14.37
2019-04-21T23:14:00.444Z,16.90
2019-04-21T23:16:30.108Z,14.40
2019-04-21T23:19:15.895Z,15.90
2019-04-21T23:21:55.249Z,16.17
2019-04-21T23:24:33.106Z,21.00
2019-04-21T23:26:54.177Z,17.90
2019-04-21T23:29:43.870Z,15.07
2019-04-21T23:32:02.982Z,11.97
2019-04-21T23:34:28.346Z,16.87
2019-04-21T23:37:04.403Z,15.17
2019-04-21T23:39:32.797Z,19.20
2019-04-21T23:42:04.555Z,16.23
2019-04-21T23:44:41.810Z,15.27
2019-04-21T23:47:13.359Z,18.83
2019-04-21T23:49:53.164Z,17.30
2019-04-21T23:52:18.338Z,18.77
2019-04-21T23:54:51.661Z,14.83
2019-04-21T23:57:31.752Z,15.90
2019-04-21T23:59:59.620Z,32.97
